createdAt,value
2023-06-17T00:00:18.839Z,999.4
2023-06-17T00:01:19.598Z,999.4
2023-06-17T00:02:20.502Z,999.4
2023-06-17T00:03:21.519Z,999.4
2023-06-17T00:04:22.565Z,999.4
2023-06-17T00:05:23.506Z,999.4
2023-06-17T00:06:24.523Z,999.4
2023-06-17T00:07:25.507Z,999.4
2023-06-17T00:08:26.534Z,999.4
2023-06-17T00:09:27.511Z,999.4
2023-06-17T00:10:28.563Z,999.4
2023-06-17T00:11:29.573Z,999.4
2023-06-17T00:12:30.518Z,999.3
2023-06-17T00:13:31.536Z,999.3
2023-06-17T00:14:32.502Z,999.4
2023-06-17T00:15:33.528Z,999.3
2023-06-17T00:16:34.537Z,999.3
2023-06-17T00:17:35.573Z,998.8
2023-06-17T00:18:36.517Z,998.9
2023-06-17T00:19:37.537Z,999
2023-06-17T00:20:38.514Z,999.3
2023-06-17T00:21:39.523Z,999.3
2023-06-17T00:22:40.541Z,999.3
2023-06-17T00:23:41.540Z,999.3
2023-06-17T00:24:42.568Z,999.3
2023-06-17T00:25:43.531Z,999.3
2023-06-17T00:26:44.534Z,999.3
2023-06-17T00:27:45.542Z,999.3
2023-06-17T00:28:46.527Z,999.3
2023-06-17T00:29:47.519Z,999.2
2023-06-17T00:30:48.552Z,999.2
2023-06-17T00:31:49.503Z,999.2
2023-06-17T00:32:50.665Z,999.2
2023-06-17T00:33:51.552Z,999.3
2023-06-17T00:34:52.515Z,999.2
2023-06-17T00:35:55.806Z,999.2
2023-06-17T00:36:54.535Z,999.2
2023-06-17T00:37:55.530Z,999.2
2023-06-17T00:38:56.552Z,999.2
2023-06-17T00:39:57.532Z,999.2
2023-06-17T00:40:58.526Z,999.2
2023-06-17T00:41:59.528Z,999.3
2023-06-17T00:43:00.549Z,999.2
2023-06-17T00:44:01.566Z,999.2
2023-06-17T00:45:02.559Z,999.2
2023-06-17T00:46:03.576Z,999.2
2023-06-17T00:47:04.596Z,999.2
2023-06-17T00:48:05.555Z,999.2
2023-06-17T00:49:06.547Z,999.2
2023-06-17T00:50:07.560Z,999.2
2023-06-17T00:51:08.688Z,999.1
2023-06-17T00:52:17.705Z,999.1
2023-06-17T00:53:10.543Z,999.1
2023-06-17T00:54:11.555Z,999.1
2023-06-17T00:55:12.571Z,999.1
2023-06-17T00:56:13.539Z,999.1
2023-06-17T00:57:14.613Z,998.8
2023-06-17T00:58:15.535Z,999
2023-06-17T00:59:16.524Z,999.1
2023-06-17T01:00:17.633Z,999.1
2023-06-17T01:01:18.552Z,999.1
2023-06-17T01:02:19.575Z,999.1
2023-06-17T01:03:20.696Z,999.1
2023-06-17T01:04:21.569Z,999
2023-06-17T01:05:22.552Z,999.1
2023-06-17T01:06:23.532Z,999
2023-06-17T01:07:24.576Z,999
2023-06-17T01:08:25.542Z,999
2023-06-17T01:09:26.587Z,999
2023-06-17T01:10:27.541Z,999
2023-06-17T01:11:28.542Z,999
2023-06-17T01:12:29.577Z,999
2023-06-17T01:13:30.531Z,999
2023-06-17T01:14:31.557Z,999.1
2023-06-17T01:15:32.552Z,999.1
2023-06-17T01:16:33.627Z,999.2
2023-06-17T01:17:34.582Z,999.1
2023-06-17T01:18:35.595Z,999.2
2023-06-17T01:19:36.559Z,999.1
2023-06-17T01:20:37.645Z,999.1
2023-06-17T01:21:38.551Z,999.1
2023-06-17T01:22:39.569Z,999.1
2023-06-17T01:23:40.571Z,999.1
2023-06-17T01:24:41.599Z,999.1
2023-06-17T01:25:42.558Z,999.1
2023-06-17T01:26:43.539Z,999.1
2023-06-17T01:27:44.553Z,999.1
2023-06-17T01:28:45.565Z,999.1
2023-06-17T01:29:46.575Z,999.1
2023-06-17T01:30:47.589Z,999.1
2023-06-17T01:31:48.575Z,999.1
2023-06-17T01:32:49.607Z,999.1
2023-06-17T01:33:50.602Z,999.1
2023-06-17T01:34:51.571Z,999.1
2023-06-17T01:35:52.558Z,999.1
2023-06-17T01:36:53.587Z,999.1
2023-06-17T01:37:54.551Z,999.1
2023-06-17T01:38:55.575Z,999.1
2023-06-17T01:39:56.590Z,999.1
2023-06-17T01:40:57.572Z,999.1
2023-06-17T01:41:58.566Z,999.1
2023-06-17T01:42:59.558Z,999.1
2023-06-17T01:44:00.599Z,999.2
2023-06-17T01:45:01.605Z,999.1
2023-06-17T01:46:02.580Z,999.1
2023-06-17T01:47:03.572Z,999.1
2023-06-17T01:48:04.569Z,999.1
2023-06-17T01:49:05.581Z,999.1
2023-06-17T01:50:06.584Z,999.1
2023-06-17T01:51:07.562Z,999.1
2023-06-17T01:52:08.576Z,999.1
2023-06-17T01:53:09.573Z,999.1
2023-06-17T01:54:10.581Z,999.1
2023-06-17T01:55:11.595Z,999.1
2023-06-17T01:56:12.564Z,999
2023-06-17T01:57:13.606Z,999.1
2023-06-17T01:58:14.565Z,999.1
2023-06-17T01:59:15.611Z,999.1
2023-06-17T02:00:16.584Z,999.1
2023-06-17T02:01:17.559Z,999.1
2023-06-17T02:02:18.570Z,999.1
2023-06-17T02:03:19.602Z,999.1
2023-06-17T02:04:20.746Z,999.2
2023-06-17T02:05:21.570Z,999.1
2023-06-17T02:06:23.014Z,999.1
2023-06-17T02:07:23.567Z,999.1
2023-06-17T02:08:24.573Z,999.1
2023-06-17T02:09:25.590Z,999.2
2023-06-17T02:10:26.641Z,999.2
2023-06-17T02:11:27.559Z,999.2
2023-06-17T02:12:28.568Z,999.2
2023-06-17T02:13:29.580Z,999.2
2023-06-17T02:14:30.579Z,999.2
2023-06-17T02:15:31.587Z,998.9
2023-06-17T02:16:32.715Z,999.1
2023-06-17T02:17:33.623Z,999.1
2023-06-17T02:18:34.575Z,999.2
2023-06-17T02:19:35.636Z,999.2
2023-06-17T02:20:36.583Z,999.1
2023-06-17T02:21:37.743Z,998.9
2023-06-17T02:22:38.629Z,999.1
2023-06-17T02:23:39.611Z,999.1
2023-06-17T02:24:40.593Z,999.1
2023-06-17T02:25:41.695Z,999.2
2023-06-17T02:26:42.597Z,999.1
2023-06-17T02:27:43.586Z,999.2
2023-06-17T02:28:44.601Z,999.2
2023-06-17T02:29:45.597Z,999.1
2023-06-17T02:30:46.583Z,999.1
2023-06-17T02:31:47.731Z,999.1
2023-06-17T02:32:48.723Z,999.1
2023-06-17T02:33:49.599Z,999.1
2023-06-17T02:34:50.601Z,999.2
2023-06-17T02:35:52.099Z,999.2
2023-06-17T02:36:53.595Z,999.2
2023-06-17T02:37:54.612Z,999.2
2023-06-17T02:38:55.592Z,999.2
2023-06-17T02:39:56.607Z,999.2
2023-06-17T02:40:57.640Z,999.1
2023-06-17T02:41:58.645Z,999.1
2023-06-17T02:42:59.621Z,999.2
2023-06-17T02:44:00.620Z,999.2
2023-06-17T02:45:01.618Z,999.3
2023-06-17T02:46:02.640Z,999.1
2023-06-17T02:47:03.668Z,999.1
2023-06-17T02:48:04.641Z,999.1
2023-06-17T02:49:05.598Z,999.1
2023-06-17T02:50:06.692Z,999.1
2023-06-17T02:51:07.604Z,999.1
2023-06-17T02:52:08.667Z,999.1
2023-06-17T02:53:09.615Z,999.1
2023-06-17T02:54:10.579Z,999.1
2023-06-17T02:55:11.610Z,999
2023-06-17T02:56:12.661Z,999
2023-06-17T02:57:13.610Z,999
2023-06-17T02:58:14.616Z,999
2023-06-17T02:59:15.624Z,999
2023-06-17T03:00:16.640Z,999.1
2023-06-17T03:01:17.698Z,999
2023-06-17T03:02:18.619Z,999.1
2023-06-17T03:03:19.656Z,999.1
2023-06-17T03:04:20.615Z,999.1
2023-06-17T03:05:21.613Z,999.1
2023-06-17T03:06:22.612Z,999.1
2023-06-17T03:07:23.666Z,999
2023-06-17T03:08:24.601Z,999
2023-06-17T03:09:25.633Z,999
2023-06-17T03:10:26.610Z,999
2023-06-17T03:11:27.721Z,999.1
2023-06-17T03:12:28.633Z,999
2023-06-17T03:13:29.616Z,999
2023-06-17T03:14:30.614Z,999
2023-06-17T03:15:31.649Z,999
2023-06-17T03:16:32.694Z,999
2023-06-17T03:17:33.653Z,999.1
2023-06-17T03:18:34.612Z,999.1
2023-06-17T03:19:35.622Z,999.1
2023-06-17T03:20:36.615Z,999
2023-06-17T03:21:37.632Z,999
2023-06-17T03:22:38.626Z,999
2023-06-17T03:23:39.641Z,999
2023-06-17T03:24:40.679Z,999.1
2023-06-17T03:25:41.677Z,999.1
2023-06-17T03:26:42.650Z,999.1
2023-06-17T03:27:43.664Z,999.1
2023-06-17T03:28:44.613Z,999
2023-06-17T03:29:45.629Z,999
2023-06-17T03:30:46.670Z,999
2023-06-17T03:31:47.640Z,999
2023-06-17T03:32:48.634Z,999.1
2023-06-17T03:33:49.616Z,999
2023-06-17T03:34:50.650Z,999
2023-06-17T03:35:51.655Z,999
2023-06-17T03:36:53.257Z,999
2023-06-17T03:37:54.621Z,999
2023-06-17T03:38:55.649Z,999.1
2023-06-17T03:39:56.620Z,999.1
2023-06-17T03:40:57.676Z,999
2023-06-17T03:41:58.709Z,999.1
2023-06-17T03:42:59.670Z,999.1
2023-06-17T03:44:00.668Z,999.1
2023-06-17T03:45:01.694Z,999.1
2023-06-17T03:46:02.643Z,999.1
2023-06-17T03:47:03.669Z,999.1
2023-06-17T03:48:04.735Z,999.1
2023-06-17T03:49:05.627Z,999.1
2023-06-17T03:50:06.680Z,999.1
2023-06-17T03:51:07.599Z,999.1
2023-06-17T03:52:08.651Z,999.1
2023-06-17T03:53:09.708Z,999.1
2023-06-17T03:54:10.664Z,999.1
2023-06-17T03:55:11.700Z,999.1
2023-06-17T03:56:12.647Z,999.2
2023-06-17T03:57:13.686Z,999.2
2023-06-17T03:58:14.649Z,999.2
2023-06-17T03:59:15.663Z,999.2
2023-06-17T04:00:16.654Z,999.2
2023-06-17T04:01:17.638Z,999.2
2023-06-17T04:02:18.655Z,999.2
2023-06-17T04:03:19.710Z,999.2
2023-06-17T04:04:20.711Z,999.2
2023-06-17T04:05:21.691Z,999.1
2023-06-17T04:06:22.690Z,999.1
2023-06-17T04:07:23.654Z,999.2
2023-06-17T04:08:24.728Z,999.2
2023-06-17T04:09:25.661Z,999.1
2023-06-17T04:10:26.875Z,999.2
2023-06-17T04:11:27.692Z,999.2
2023-06-17T04:12:28.693Z,999.1
2023-06-17T04:13:29.664Z,999.1
2023-06-17T04:14:30.651Z,999.1
2023-06-17T04:15:31.722Z,999.1
2023-06-17T04:16:32.689Z,999.1
2023-06-17T04:17:33.662Z,999.1
2023-06-17T04:18:34.660Z,999.1
2023-06-17T04:19:35.683Z,999.1
2023-06-17T04:20:36.653Z,998.9
2023-06-17T04:21:37.696Z,999.1
2023-06-17T04:22:38.665Z,999.1
2023-06-17T04:23:39.643Z,999.1
2023-06-17T04:24:40.782Z,999.2
2023-06-17T04:25:41.678Z,999.1
2023-06-17T04:26:42.684Z,999.1
2023-06-17T04:27:43.684Z,999.1
2023-06-17T04:28:44.701Z,999.1
2023-06-17T04:29:45.732Z,999.2
2023-06-17T04:30:46.656Z,998.6
2023-06-17T04:31:47.698Z,999
2023-06-17T04:32:48.707Z,999.1
2023-06-17T04:33:49.648Z,999.1
2023-06-17T04:34:50.677Z,999.1
2023-06-17T04:35:51.660Z,999.1
2023-06-17T04:36:52.667Z,999.1
2023-06-17T04:37:53.666Z,999.2
2023-06-17T04:38:54.663Z,999.1
2023-06-17T04:39:55.659Z,999.1
2023-06-17T04:40:56.681Z,999.2
2023-06-17T04:41:57.664Z,999.1
2023-06-17T04:42:58.700Z,999.2
2023-06-17T04:43:59.672Z,999.1
2023-06-17T04:45:00.685Z,999.1
2023-06-17T04:46:01.719Z,999.1
2023-06-17T04:47:02.732Z,999.1
2023-06-17T04:48:03.715Z,999.1
2023-06-17T04:49:04.662Z,999.1
2023-06-17T04:50:05.693Z,999.1
2023-06-17T04:51:06.735Z,998.7
2023-06-17T04:52:07.679Z,999
2023-06-17T04:53:09.024Z,999.1
2023-06-17T04:54:09.682Z,999.1
2023-06-17T04:55:10.740Z,999.1
2023-06-17T04:56:11.663Z,999.1
2023-06-17T04:57:12.702Z,999.1
2023-06-17T04:58:13.728Z,999.1
2023-06-17T04:59:14.660Z,999.1
2023-06-17T05:00:15.685Z,999.1
2023-06-17T05:01:16.781Z,999.1
2023-06-17T05:02:17.684Z,999.1
2023-06-17T05:03:18.858Z,999.1
2023-06-17T05:04:19.695Z,999.1
2023-06-17T05:05:20.732Z,999.1
2023-06-17T05:06:21.666Z,999.1
2023-06-17T05:07:22.690Z,999.1
2023-06-17T05:08:23.691Z,999.1
2023-06-17T05:09:24.665Z,999.1
2023-06-17T05:10:25.674Z,999.1
2023-06-17T05:11:26.704Z,999.1
2023-06-17T05:12:27.685Z,999.1
2023-06-17T05:13:28.698Z,999.1
2023-06-17T05:14:29.692Z,999.1
2023-06-17T05:15:30.674Z,999.1
2023-06-17T05:16:31.731Z,999.1
2023-06-17T05:17:33.262Z,999.1
2023-06-17T05:18:34.694Z,999.1
2023-06-17T05:19:35.688Z,999.1
2023-06-17T05:20:36.677Z,999
2023-06-17T05:21:37.698Z,999.1
2023-06-17T05:22:38.690Z,999.1
2023-06-17T05:23:39.685Z,999.1
2023-06-17T05:24:40.768Z,999.1
2023-06-17T05:25:41.715Z,999.2
2023-06-17T05:26:42.688Z,999.1
2023-06-17T05:27:43.699Z,999.1
2023-06-17T05:28:44.722Z,999.1
2023-06-17T05:29:45.712Z,999.1
2023-06-17T05:30:46.755Z,999.1
2023-06-17T05:31:47.736Z,999.1
2023-06-17T05:32:48.721Z,999.1
2023-06-17T05:33:49.704Z,999.1
2023-06-17T05:34:50.706Z,999.1
2023-06-17T05:35:51.684Z,999.1
2023-06-17T05:36:52.729Z,999.1
2023-06-17T05:37:53.690Z,999.1
2023-06-17T05:38:54.721Z,999.1
2023-06-17T05:39:55.686Z,999.1
2023-06-17T05:40:56.716Z,999.2
2023-06-17T05:41:57.698Z,999.2
2023-06-17T05:42:59.069Z,999.2
2023-06-17T05:43:59.729Z,999.2
2023-06-17T05:45:00.776Z,999.2
2023-06-17T05:46:01.780Z,999.2
2023-06-17T05:47:02.705Z,999
2023-06-17T05:48:03.746Z,999.1
2023-06-17T05:49:04.696Z,999.2
2023-06-17T05:50:05.699Z,999.3
2023-06-17T05:51:06.810Z,999.2
2023-06-17T05:52:07.702Z,999.2
2023-06-17T05:53:08.711Z,999.2
2023-06-17T05:54:09.835Z,999.2
2023-06-17T05:55:10.830Z,999.2
2023-06-17T05:56:11.697Z,999.2
2023-06-17T05:57:12.718Z,999.3
2023-06-17T05:58:13.717Z,999.2
2023-06-17T05:59:16.729Z,999.2
2023-06-17T06:00:15.757Z,999.3
2023-06-17T06:01:16.711Z,999.2
2023-06-17T06:02:17.709Z,998.9
2023-06-17T06:03:18.770Z,998.5
2023-06-17T06:04:19.862Z,999
2023-06-17T06:05:20.764Z,999.2
2023-06-17T06:06:21.708Z,999.2
2023-06-17T06:07:22.712Z,999.3
2023-06-17T06:08:23.716Z,999.3
2023-06-17T06:09:24.760Z,999.2
2023-06-17T06:10:25.718Z,999.2
2023-06-17T06:11:26.753Z,999.2
2023-06-17T06:12:27.736Z,999.2
2023-06-17T06:13:28.718Z,999.2
2023-06-17T06:14:29.732Z,999.2
2023-06-17T06:15:30.728Z,999.2
2023-06-17T06:16:31.773Z,999.2
2023-06-17T06:17:32.737Z,999.2
2023-06-17T06:18:33.763Z,999.3
2023-06-17T06:19:34.720Z,999.3
2023-06-17T06:20:35.732Z,999.2
2023-06-17T06:21:36.737Z,999.3
2023-06-17T06:22:37.728Z,999.2
2023-06-17T06:23:38.741Z,999.3
2023-06-17T06:24:39.784Z,999.3
2023-06-17T06:25:40.778Z,999
2023-06-17T06:26:41.832Z,999.3
2023-06-17T06:27:42.771Z,999.4
2023-06-17T06:28:43.733Z,999.4
2023-06-17T06:29:44.794Z,999.4
2023-06-17T06:30:45.748Z,999.4
2023-06-17T06:31:46.725Z,999.5
2023-06-17T06:32:47.778Z,999.5
2023-06-17T06:33:48.723Z,999.5
2023-06-17T06:34:49.776Z,999.5
2023-06-17T06:35:50.746Z,999.5
2023-06-17T06:36:51.726Z,999.5
2023-06-17T06:37:52.725Z,999.5
2023-06-17T06:38:53.733Z,999.5
2023-06-17T06:39:54.749Z,999.5
2023-06-17T06:40:55.774Z,999.5
2023-06-17T06:41:56.735Z,999.5
2023-06-17T06:42:57.754Z,999.5
2023-06-17T06:43:58.810Z,999.5
2023-06-17T06:44:59.782Z,999.5
2023-06-17T06:46:00.908Z,999.5
2023-06-17T06:47:01.784Z,999.5
2023-06-17T06:48:02.814Z,999.6
2023-06-17T06:49:03.766Z,999.6
2023-06-17T06:50:04.805Z,999.6
2023-06-17T06:51:05.800Z,999.6
2023-06-17T06:52:06.787Z,999.6
2023-06-17T06:53:07.757Z,999.5
2023-06-17T06:54:08.741Z,999.5
2023-06-17T06:55:09.779Z,999.5
2023-06-17T06:56:10.939Z,999.6
2023-06-17T06:57:11.764Z,999.6
2023-06-17T06:58:12.730Z,999.5
2023-06-17T06:59:13.792Z,999.5
2023-06-17T07:00:14.823Z,999.6
2023-06-17T07:01:15.825Z,999.5
2023-06-17T07:02:16.765Z,999.5
2023-06-17T07:03:17.786Z,999.4
2023-06-17T07:04:18.807Z,999.5
2023-06-17T07:05:19.766Z,999.5
2023-06-17T07:06:20.771Z,999.5
2023-06-17T07:07:21.760Z,999.4
2023-06-17T07:08:22.756Z,999.5
2023-06-17T07:09:23.774Z,999.5
2023-06-17T07:10:24.983Z,999.5
2023-06-17T07:11:25.750Z,999.5
2023-06-17T07:12:26.749Z,999.5
2023-06-17T07:13:27.759Z,999.5
2023-06-17T07:14:28.743Z,999.4
2023-06-17T07:15:29.783Z,999.5
2023-06-17T07:16:30.737Z,999.4
2023-06-17T07:17:31.906Z,999.5
2023-06-17T07:18:32.783Z,999.5
2023-06-17T07:19:33.747Z,999.2
2023-06-17T07:20:34.928Z,999.4
2023-06-17T07:21:35.805Z,999.4
2023-06-17T07:22:36.805Z,999.5
2023-06-17T07:23:37.784Z,999.4
2023-06-17T07:24:38.812Z,999.5
2023-06-17T07:25:39.780Z,999.5
2023-06-17T07:26:40.843Z,999.5
2023-06-17T07:27:41.763Z,999.5
2023-06-17T07:28:42.767Z,999.5
2023-06-17T07:29:43.769Z,999.5
2023-06-17T07:30:44.841Z,999.4
2023-06-17T07:31:45.803Z,999.5
2023-06-17T07:32:46.805Z,999.5
2023-06-17T07:33:47.739Z,999.5
2023-06-17T07:34:48.772Z,999.5
2023-06-17T07:35:49.760Z,999.5
2023-06-17T07:36:50.752Z,999.5
2023-06-17T07:37:51.769Z,999.5
2023-06-17T07:38:52.783Z,999.5
2023-06-17T07:39:53.774Z,999.5
2023-06-17T07:40:54.756Z,999.5
2023-06-17T07:41:55.774Z,999.4
2023-06-17T07:42:56.800Z,999.4
2023-06-17T07:43:57.768Z,999.4
2023-06-17T07:44:58.760Z,999.4
2023-06-17T07:45:59.862Z,999.4
2023-06-17T07:47:00.806Z,999.4
2023-06-17T07:48:01.993Z,999.4
2023-06-17T07:49:02.768Z,999.1
2023-06-17T07:50:03.823Z,999.3
2023-06-17T07:51:04.764Z,999.4
2023-06-17T07:52:05.763Z,999.4
2023-06-17T07:53:06.800Z,999.3
2023-06-17T07:54:07.791Z,999.4
2023-06-17T07:55:09.397Z,999.4
2023-06-17T07:56:10.985Z,999.3
2023-06-17T07:57:11.784Z,999.3
2023-06-17T07:58:12.776Z,999.3
2023-06-17T07:59:13.796Z,999.3
2023-06-17T08:00:14.843Z,999.3
2023-06-17T08:01:15.808Z,999.3
2023-06-17T08:02:16.844Z,999.3
2023-06-17T08:03:17.867Z,999.3
2023-06-17T08:04:18.807Z,999
2023-06-17T08:05:19.851Z,999.2
2023-06-17T08:06:20.951Z,999.2
2023-06-17T08:07:21.799Z,999.3
2023-06-17T08:08:22.855Z,999.3
2023-06-17T08:09:23.763Z,999.2
2023-06-17T08:10:24.794Z,999.2
2023-06-17T08:11:25.782Z,999.2
2023-06-17T08:12:26.834Z,999.3
2023-06-17T08:13:27.780Z,999.3
2023-06-17T08:14:28.787Z,999.2
2023-06-17T08:15:29.866Z,999.2
2023-06-17T08:16:30.851Z,999.2
2023-06-17T08:17:31.923Z,999.3
2023-06-17T08:18:32.832Z,999.2
2023-06-17T08:19:33.803Z,999.2
2023-06-17T08:20:34.813Z,999.2
2023-06-17T08:21:35.779Z,999.2
2023-06-17T08:22:36.823Z,999.2
2023-06-17T08:23:37.781Z,999.2
2023-06-17T08:24:38.780Z,999.2
2023-06-17T08:25:39.799Z,999.2
2023-06-17T08:26:40.849Z,999.2
2023-06-17T08:27:42.417Z,999.2
2023-06-17T08:28:43.801Z,999.2
2023-06-17T08:29:44.788Z,999.1
2023-06-17T08:30:45.803Z,999.1
2023-06-17T08:31:46.813Z,999.1
2023-06-17T08:32:47.837Z,999.2
2023-06-17T08:33:48.802Z,999.2
2023-06-17T08:34:49.797Z,999.1
2023-06-17T08:35:50.803Z,999.2
2023-06-17T08:36:51.812Z,999.2
2023-06-17T08:37:52.815Z,999.2
2023-06-17T08:38:53.833Z,999.2
2023-06-17T08:39:54.805Z,999.2
2023-06-17T08:40:55.817Z,999.1
2023-06-17T08:41:56.793Z,999.1
2023-06-17T08:42:57.792Z,999.1
2023-06-17T08:43:58.803Z,998.9
2023-06-17T08:44:59.809Z,999
2023-06-17T08:46:00.951Z,999.1
2023-06-17T08:47:01.869Z,998.7
2023-06-17T08:48:02.885Z,999.1
2023-06-17T08:49:03.817Z,999.2
2023-06-17T08:50:04.845Z,999.2
2023-06-17T08:51:05.841Z,999.2
2023-06-17T08:52:06.909Z,999.2
2023-06-17T08:53:07.847Z,999.2
2023-06-17T08:54:08.808Z,999.2
2023-06-17T08:55:09.825Z,999.2
2023-06-17T08:56:11.545Z,999.1
2023-06-17T08:57:12.849Z,999.2
2023-06-17T08:58:13.832Z,999.2
2023-06-17T08:59:14.845Z,999.1
2023-06-17T09:00:15.858Z,998.7
2023-06-17T09:01:16.953Z,999
2023-06-17T09:02:17.895Z,999.1
2023-06-17T09:03:18.817Z,999.1
2023-06-17T09:04:19.858Z,999.2
2023-06-17T09:05:20.910Z,999.1
2023-06-17T09:06:21.873Z,999.2
2023-06-17T09:07:22.813Z,999.2
2023-06-17T09:08:23.813Z,999.1
2023-06-17T09:09:24.826Z,999.1
2023-06-17T09:10:25.812Z,999.2
2023-06-17T09:11:26.889Z,999.2
2023-06-17T09:12:27.834Z,999.2
2023-06-17T09:13:28.873Z,999.2
2023-06-17T09:14:29.834Z,999.2
2023-06-17T09:15:30.835Z,999.2
2023-06-17T09:16:31.843Z,999.2
2023-06-17T09:17:33.182Z,999.2
2023-06-17T09:18:33.870Z,999.2
2023-06-17T09:19:34.830Z,999.3
2023-06-17T09:20:35.834Z,999.2
2023-06-17T09:21:36.841Z,999.2
2023-06-17T09:22:39.694Z,999.2
2023-06-17T09:23:38.845Z,999.2
2023-06-17T09:24:39.840Z,998.2
2023-06-17T09:25:40.915Z,998.9
2023-06-17T09:26:41.840Z,999.1
2023-06-17T09:27:42.820Z,999.1
2023-06-17T09:28:43.836Z,999.3
2023-06-17T09:29:44.869Z,999.2
2023-06-17T09:30:45.819Z,999.2
2023-06-17T09:31:47.225Z,999.3
2023-06-17T09:32:47.875Z,999.3
2023-06-17T09:33:48.869Z,999.3
2023-06-17T09:34:49.868Z,999.2
2023-06-17T09:35:50.848Z,999.2
2023-06-17T09:36:51.847Z,999.2
2023-06-17T09:38:02.258Z,999.2
2023-06-17T09:38:53.846Z,999.3
2023-06-17T09:39:54.884Z,999.3
2023-06-17T09:40:57.419Z,999.3
2023-06-17T09:41:56.846Z,999.3
2023-06-17T09:42:58.139Z,999.3
2023-06-17T09:43:58.849Z,999.3
2023-06-17T09:44:59.855Z,999.3
2023-06-17T09:46:01.464Z,999.3
2023-06-17T09:47:01.901Z,999.3
2023-06-17T09:48:03.114Z,999.3
2023-06-17T09:49:03.869Z,999.3
2023-06-17T09:50:04.883Z,999.3
2023-06-17T09:51:05.835Z,999.3
2023-06-17T09:52:06.956Z,999.3
2023-06-17T09:53:07.834Z,999.3
2023-06-17T09:54:08.891Z,999.3
2023-06-17T09:55:09.872Z,999.3
2023-06-17T09:56:11.541Z,999.3
2023-06-17T09:57:12.882Z,999.3
2023-06-17T09:58:13.852Z,999.3
2023-06-17T09:59:15.383Z,999.3
2023-06-17T10:00:16.890Z,999.3
2023-06-17T10:01:17.853Z,999.4
2023-06-17T10:02:18.889Z,999.3
2023-06-17T10:03:19.917Z,999.3
2023-06-17T10:04:21.041Z,999.3
2023-06-17T10:05:21.883Z,999.3
2023-06-17T10:06:22.875Z,999.3
2023-06-17T10:07:23.888Z,999.3
2023-06-17T10:08:24.860Z,999.3
2023-06-17T10:09:25.853Z,999.3
2023-06-17T10:10:26.869Z,999.3
2023-06-17T10:11:27.886Z,998.9
2023-06-17T10:12:28.881Z,999.2
2023-06-17T10:13:29.872Z,999
2023-06-17T10:14:30.854Z,999.2
2023-06-17T10:15:31.867Z,999.3
2023-06-17T10:16:32.879Z,999.3
2023-06-17T10:17:33.933Z,999.3
2023-06-17T10:18:34.906Z,999.3
2023-06-17T10:19:35.876Z,999.3
2023-06-17T10:20:36.864Z,999.3
2023-06-17T10:21:37.873Z,999.2
2023-06-17T10:22:38.862Z,999.2
2023-06-17T10:23:39.910Z,999.2
2023-06-17T10:24:41.004Z,999.1
2023-06-17T10:25:41.883Z,999.2
2023-06-17T10:26:42.867Z,999.2
2023-06-17T10:27:43.927Z,999.1
2023-06-17T10:28:44.872Z,998.7
2023-06-17T10:29:45.901Z,998.9
2023-06-17T10:30:46.859Z,999
2023-06-17T10:31:47.864Z,999
2023-06-17T10:32:50.144Z,999.1
2023-06-17T10:33:50.521Z,999.1
2023-06-17T10:34:51.879Z,999
2023-06-17T10:35:52.889Z,999.1
2023-06-17T10:36:53.863Z,999
2023-06-17T10:37:54.863Z,999
2023-06-17T10:38:55.913Z,999
2023-06-17T10:39:56.878Z,999.1
2023-06-17T10:40:57.877Z,999.1
2023-06-17T10:41:59.009Z,999
2023-06-17T10:42:59.863Z,999
2023-06-17T10:44:01.113Z,998.9
2023-06-17T10:45:01.959Z,998.9
2023-06-17T10:46:03.037Z,998.9
2023-06-17T10:47:03.884Z,998.9
2023-06-17T10:48:04.928Z,998.9
2023-06-17T10:49:05.924Z,998.9
2023-06-17T10:50:06.912Z,998.6
2023-06-17T10:51:07.892Z,998.8
2023-06-17T10:52:08.888Z,998.9
2023-06-17T10:53:09.903Z,998.9
2023-06-17T10:54:10.896Z,998.9
2023-06-17T10:55:11.907Z,999
2023-06-17T10:56:14.863Z,998.9
2023-06-17T10:57:13.909Z,998.9
2023-06-17T10:58:14.911Z,998.9
2023-06-17T10:59:15.930Z,998.9
2023-06-17T11:00:16.927Z,998.9
2023-06-17T11:01:17.919Z,998.9
2023-06-17T11:02:18.939Z,998.9
2023-06-17T11:03:20.306Z,998.9
2023-06-17T11:04:21.004Z,998.8
2023-06-17T11:05:21.898Z,998.8
2023-06-17T11:06:22.954Z,998.9
2023-06-17T11:07:23.935Z,998.9
2023-06-17T11:08:24.904Z,998.8
2023-06-17T11:09:25.913Z,998.8
2023-06-17T11:10:26.918Z,998.8
2023-06-17T11:11:27.885Z,998.8
2023-06-17T11:12:28.902Z,998.8
2023-06-17T11:13:29.913Z,998.8
2023-06-17T11:14:30.961Z,998.8
2023-06-17T11:15:31.927Z,998.7
2023-06-17T11:16:32.923Z,998.7
2023-06-17T11:17:33.949Z,998.7
2023-06-17T11:18:34.906Z,998.7
2023-06-17T11:19:35.952Z,998.7
2023-06-17T11:20:36.917Z,998.6
2023-06-17T11:21:37.926Z,998.7
2023-06-17T11:22:38.909Z,998.7
2023-06-17T11:23:39.972Z,998.7
2023-06-17T11:24:41.034Z,998.6
2023-06-17T11:25:45.222Z,998.6
2023-06-17T11:26:43.294Z,998.6
2023-06-17T11:27:43.968Z,998.4
2023-06-17T11:28:44.935Z,998.6
2023-06-17T11:29:45.966Z,998.6
2023-06-17T11:30:47.845Z,998.6
2023-06-17T11:31:50.976Z,998.6
2023-06-17T11:32:52.987Z,998.6
2023-06-17T11:33:53.915Z,998.6
2023-06-17T11:34:54.951Z,998.6
2023-06-17T11:35:55.918Z,998.7
2023-06-17T11:36:56.953Z,998.7
2023-06-17T11:37:57.913Z,998.6
2023-06-17T11:38:58.979Z,998.6
2023-06-17T11:39:59.921Z,998.6
2023-06-17T11:41:00.952Z,998.8
2023-06-17T11:42:01.952Z,998.7
2023-06-17T11:43:02.952Z,998.6
2023-06-17T11:44:03.923Z,998.1
2023-06-17T11:45:04.935Z,998.5
2023-06-17T11:46:05.926Z,998.7
2023-06-17T11:47:06.970Z,998.4
2023-06-17T11:48:08.061Z,998.6
2023-06-17T11:49:08.918Z,998.6
2023-06-17T11:50:09.962Z,998.6
2023-06-17T11:51:10.936Z,998.5
2023-06-17T11:52:11.980Z,998.5
2023-06-17T11:53:12.939Z,998.6
2023-06-17T11:54:13.906Z,998.5
2023-06-17T11:55:14.916Z,998.6
2023-06-17T11:56:15.921Z,998.6
2023-06-17T11:57:16.933Z,998.6
2023-06-17T11:58:17.928Z,998.6
2023-06-17T11:59:18.915Z,998.5
2023-06-17T12:00:20.355Z,998.5
2023-06-17T12:01:20.976Z,998.5
2023-06-17T12:02:21.984Z,998.5
2023-06-17T12:03:23.009Z,998.5
2023-06-17T12:04:24.025Z,998.5
2023-06-17T12:05:24.966Z,998.5
2023-06-17T12:06:26.430Z,998.4
2023-06-17T12:07:27.930Z,998.4
2023-06-17T12:08:28.945Z,998.4
2023-06-17T12:09:29.926Z,998.4
2023-06-17T12:10:30.945Z,998.3
2023-06-17T12:11:32.005Z,998.3
2023-06-17T12:12:33.071Z,998.3
2023-06-17T12:13:33.931Z,998.3
2023-06-17T12:14:34.948Z,997.9
2023-06-17T12:15:37.222Z,998.2
2023-06-17T12:16:36.929Z,998.2
2023-06-17T12:17:38.015Z,998.3
2023-06-17T12:18:38.964Z,998.3
2023-06-17T12:19:39.957Z,998.3
2023-06-17T12:20:40.995Z,998.4
2023-06-17T12:21:41.961Z,998.5
2023-06-17T12:22:42.929Z,998.5
2023-06-17T12:23:44.548Z,998.4
2023-06-17T12:24:44.967Z,998.4
2023-06-17T12:25:45.974Z,998.4
2023-06-17T12:26:46.968Z,998.4
2023-06-17T12:27:47.962Z,998.3
2023-06-17T12:28:48.957Z,998.3
2023-06-17T12:29:49.960Z,998.4
2023-06-17T12:30:50.957Z,998.4
2023-06-17T12:31:51.951Z,998.3
2023-06-17T12:32:52.983Z,998.3
2023-06-17T12:33:53.965Z,998.3
2023-06-17T12:34:54.955Z,998.2
2023-06-17T12:35:55.975Z,998.2
2023-06-17T12:36:56.948Z,998.2
2023-06-17T12:37:57.951Z,998.3
2023-06-17T12:38:58.964Z,998.3
2023-06-17T12:39:59.958Z,998.3
2023-06-17T12:41:01.025Z,998.3
2023-06-17T12:42:03.158Z,998.3
2023-06-17T12:43:02.966Z,998.3
2023-06-17T12:44:03.988Z,998.3
2023-06-17T12:45:05.011Z,998.3
2023-06-17T12:46:06.083Z,998.3
2023-06-17T12:47:07.035Z,998.3
2023-06-17T12:48:07.992Z,998.4
2023-06-17T12:49:08.981Z,998.4
2023-06-17T12:50:10.075Z,998.4
2023-06-17T12:51:11.327Z,998.4
2023-06-17T12:52:12.051Z,998.3
2023-06-17T12:53:12.938Z,998.2
2023-06-17T12:54:13.964Z,998.2
2023-06-17T12:55:14.978Z,998.3
2023-06-17T12:56:15.987Z,998.3
2023-06-17T12:57:17.030Z,998.2
2023-06-17T12:58:17.977Z,998.3
2023-06-17T12:59:18.963Z,998.3
2023-06-17T13:00:20.023Z,998.3
2023-06-17T13:01:21.043Z,998.3
2023-06-17T13:02:21.982Z,998.2
2023-06-17T13:03:23.041Z,998.2
2023-06-17T13:04:24.020Z,998.2
2023-06-17T13:05:24.999Z,998.1
2023-06-17T13:06:26.002Z,997.9
2023-06-17T13:07:26.971Z,998
2023-06-17T13:08:27.977Z,998
2023-06-17T13:09:28.968Z,998